sensor_id;sensor_type;location;lat;lon;timestamp;P1;durP1;ratioP1;P2;durP2;ratioP2
31095;SDS011;17749;51.962;8.560;2023-04-25T05:00:32;17.25;;;6.68;;
31095;SDS011;17749;51.962;8.560;2023-04-25T05:03:02;19.00;;;5.82;;
31095;SDS011;17749;51.962;8.560;2023-04-25T05:05:50;23.80;;;6.78;;
31095;SDS011;17749;51.962;8.560;2023-04-25T05:08:38;24.45;;;6.03;;
31095;SDS011;17749;51.962;8.560;2023-04-25T05:11:34;15.55;;;5.82;;
31095;SDS011;17749;51.962;8.560;2023-04-25T05:14:13;23.35;;;6.18;;
31095;SDS011;17749;51.962;8.560;2023-04-25T05:16:59;11.88;;;5.68;;
31095;SDS011;17749;51.962;8.560;2023-04-25T05:22:59;18.45;;;5.97;;
31095;SDS011;17749;51.962;8.560;2023-04-25T05:25:49;22.90;;;6.60;;
31095;SDS011;17749;51.962;8.560;2023-04-25T05:28:32;18.65;;;7.75;;
31095;SDS011;17749;51.962;8.560;2023-04-25T05:31:11;26.50;;;6.70;;
31095;SDS011;17749;51.962;8.560;2023-04-25T05:33:46;21.67;;;6.80;;
31095;SDS011;17749;51.962;8.560;2023-04-25T05:36:14;15.68;;;7.18;;
31095;SDS011;17749;51.962;8.560;2023-04-25T05:38:43;27.35;;;7.68;;
31095;SDS011;17749;51.962;8.560;2023-04-25T05:41:33;21.70;;;5.65;;
31095;SDS011;17749;51.962;8.560;2023-04-25T05:44:20;15.15;;;5.47;;
31095;SDS011;17749;51.962;8.560;2023-04-25T05:47:00;19.35;;;6.65;;
31095;SDS011;17749;51.962;8.560;2023-04-25T05:52:24;17.63;;;5.78;;
31095;SDS011;17749;51.962;8.560;2023-04-25T05:55:06;17.30;;;5.05;;
31095;SDS011;17749;51.962;8.560;2023-04-25T05:57:34;19.55;;;5.68;;
31095;SDS011;17749;51.962;8.560;2023-04-25T06:00:02;14.23;;;6.27;;
31095;SDS011;17749;51.962;8.560;2023-04-25T06:02:43;16.70;;;6.47;;
31095;SDS011;17749;51.962;8.560;2023-04-25T06:05:13;17.23;;;5.55;;
31095;SDS011;17749;51.962;8.560;2023-04-25T06:07:40;26.17;;;5.95;;
31095;SDS011;17749;51.962;8.560;2023-04-25T06:10:07;21.13;;;6.07;;
31095;SDS011;17749;51.962;8.560;2023-04-25T06:12:35;15.32;;;4.90;;
31095;SDS011;17749;51.962;8.560;2023-04-25T06:15:03;15.30;;;5.97;;
31095;SDS011;17749;51.962;8.560;2023-04-25T06:17:49;17.60;;;6.10;;
31095;SDS011;17749;51.962;8.560;2023-04-25T06:20:16;17.10;;;5.68;;
31095;SDS011;17749;51.962;8.560;2023-04-25T06:22:43;16.83;;;5.70;;
31095;SDS011;17749;51.962;8.560;2023-04-25T06:25:11;19.95;;;6.07;;
31095;SDS011;17749;51.962;8.560;2023-04-25T06:27:38;20.90;;;6.00;;
31095;SDS011;17749;51.962;8.560;2023-04-25T06:30:05;17.15;;;6.03;;
31095;SDS011;17749;51.962;8.560;2023-04-25T06:32:33;18.02;;;6.20;;
31095;SDS011;17749;51.962;8.560;2023-04-25T06:35:01;20.05;;;6.22;;
31095;SDS011;17749;51.962;8.560;2023-04-25T06:37:28;24.42;;;5.60;;
31095;SDS011;17749;51.962;8.560;2023-04-25T06:39:55;19.55;;;5.07;;
31095;SDS011;17749;51.962;8.560;2023-04-25T06:42:22;17.30;;;5.28;;
31095;SDS011;17749;51.962;8.560;2023-04-25T06:44:56;17.90;;;6.10;;
31095;SDS011;17749;51.962;8.560;2023-04-25T06:47:24;22.13;;;6.28;;
31095;SDS011;17749;51.962;8.560;2023-04-25T06:49:52;21.70;;;6.80;;
31095;SDS011;17749;51.962;8.560;2023-04-25T06:52:19;18.90;;;6.13;;
31095;SDS011;17749;51.962;8.560;2023-04-25T06:54:47;14.35;;;5.53;;
31095;SDS011;17749;51.962;8.560;2023-04-25T06:57:20;19.58;;;5.50;;
31095;SDS011;17749;51.962;8.560;2023-04-25T06:59:48;19.58;;;5.85;;
31095;SDS011;17749;51.962;8.560;2023-04-25T07:02:15;11.95;;;5.75;;
31095;SDS011;17749;51.962;8.560;2023-04-25T07:04:42;15.98;;;5.47;;
31095;SDS011;17749;51.962;8.560;2023-04-25T07:07:10;15.52;;;4.60;;
31095;SDS011;17749;51.962;8.560;2023-04-25T07:09:44;16.10;;;4.63;;
31095;SDS011;17749;51.962;8.560;2023-04-25T07:12:11;17.83;;;4.43;;
31095;SDS011;17749;51.962;8.560;2023-04-25T07:14:38;19.55;;;4.75;;
31095;SDS011;17749;51.962;8.560;2023-04-25T07:17:07;21.15;;;5.55;;
31095;SDS011;17749;51.962;8.560;2023-04-25T07:19:34;15.25;;;5.15;;
31095;SDS011;17749;51.962;8.560;2023-04-25T07:22:01;18.33;;;5.28;;
31095;SDS011;17749;51.962;8.560;2023-04-25T07:24:32;17.27;;;4.70;;
31095;SDS011;17749;51.962;8.560;2023-04-25T07:27:01;19.30;;;4.57;;
31095;SDS011;17749;51.962;8.560;2023-04-25T07:29:33;25.10;;;6.38;;
31095;SDS011;17749;51.962;8.560;2023-04-25T07:32:03;16.55;;;4.82;;
31095;SDS011;17749;51.962;8.560;2023-04-25T07:34:36;15.45;;;5.57;;
31095;SDS011;17749;51.962;8.560;2023-04-25T07:37:04;24.30;;;5.32;;
31095;SDS011;17749;51.962;8.560;2023-04-25T07:39:44;16.08;;;4.95;;
31095;SDS011;17749;51.962;8.560;2023-04-25T07:42:21;21.10;;;4.95;;
31095;SDS011;17749;51.962;8.560;2023-04-25T07:44:50;17.55;;;4.25;;
31095;SDS011;17749;51.962;8.560;2023-04-25T07:47:18;14.82;;;3.67;;
31095;SDS011;17749;51.962;8.560;2023-04-25T07:49:46;17.25;;;5.20;;
31095;SDS011;17749;51.962;8.560;2023-04-25T07:52:14;17.55;;;4.03;;
31095;SDS011;17749;51.962;8.560;2023-04-25T07:54:47;16.23;;;4.85;;
31095;SDS011;17749;51.962;8.560;2023-04-25T07:57:19;13.65;;;5.10;;
31095;SDS011;17749;51.962;8.560;2023-04-25T07:59:48;13.10;;;4.57;;
31095;SDS011;17749;51.962;8.560;2023-04-25T08:02:16;11.68;;;3.47;;
31095;SDS011;17749;51.962;8.560;2023-04-25T08:04:44;13.20;;;3.63;;
31095;SDS011;17749;51.962;8.560;2023-04-25T08:07:15;17.00;;;3.00;;
31095;SDS011;17749;51.962;8.560;2023-04-25T08:09:50;16.73;;;3.47;;
31095;SDS011;17749;51.962;8.560;2023-04-25T08:12:23;19.83;;;4.18;;
31095;SDS011;17749;51.962;8.560;2023-04-25T08:14:50;18.05;;;4.10;;
31095;SDS011;17749;51.962;8.560;2023-04-25T08:17:17;19.27;;;3.70;;
31095;SDS011;17749;51.962;8.560;2023-04-25T08:19:44;13.20;;;3.95;;
31095;SDS011;17749;51.962;8.560;2023-04-25T08:22:21;13.75;;;2.95;;
31095;SDS011;17749;51.962;8.560;2023-04-25T08:24:58;11.82;;;3.15;;
31095;SDS011;17749;51.962;8.560;2023-04-25T08:27:26;10.88;;;2.50;;
31095;SDS011;17749;51.962;8.560;2023-04-25T08:29:53;13.75;;;3.50;;
31095;SDS011;17749;51.962;8.560;2023-04-25T08:32:20;11.50;;;3.65;;
31095;SDS011;17749;51.962;8.560;2023-04-25T08:35:08;12.27;;;3.47;;
31095;SDS011;17749;51.962;8.560;2023-04-25T08:37:35;16.85;;;3.55;;
31095;SDS011;17749;51.962;8.560;2023-04-25T08:40:11;16.83;;;3.88;;
31095;SDS011;17749;51.962;8.560;2023-04-25T08:42:59;10.40;;;3.65;;
31095;SDS011;17749;51.962;8.560;2023-04-25T08:45:30;12.73;;;3.50;;
31095;SDS011;17749;51.962;8.560;2023-04-25T08:50:27;5.53;;;2.53;;
31095;SDS011;17749;51.962;8.560;2023-04-25T08:52:56;9.85;;;2.72;;
31095;SDS011;17749;51.962;8.560;2023-04-25T08:55:28;9.95;;;3.28;;
31095;SDS011;17749;51.962;8.560;2023-04-25T08:57:59;11.80;;;3.28;;
31095;SDS011;17749;51.962;8.560;2023-04-25T09:00:28;10.98;;;2.85;;
31095;SDS011;17749;51.962;8.560;2023-04-25T09:02:56;12.55;;;3.00;;
31095;SDS011;17749;51.962;8.560;2023-04-25T09:05:29;9.02;;;3.00;;
31095;SDS011;17749;51.962;8.560;2023-04-25T09:07:56;12.75;;;3.15;;
31095;SDS011;17749;51.962;8.560;2023-04-25T09:10:25;20.45;;;3.58;;
31095;SDS011;17749;51.962;8.560;2023-04-25T09:15:46;9.60;;;3.35;;
31095;SDS011;17749;51.962;8.560;2023-04-25T09:18:43;13.15;;;3.05;;
31095;SDS011;17749;51.962;8.560;2023-04-25T09:21:14;10.52;;;2.97;;
31095;SDS011;17749;51.962;8.560;2023-04-25T09:23:45;15.23;;;3.20;;
31095;SDS011;17749;51.962;8.560;2023-04-25T09:26:14;12.52;;;3.08;;
31095;SDS011;17749;51.962;8.560;2023-04-25T09:28:47;5.43;;;2.22;;
31095;SDS011;17749;51.962;8.560;2023-04-25T09:31:22;8.02;;;2.38;;
31095;SDS011;17749;51.962;8.560;2023-04-25T09:34:00;11.73;;;2.85;;
31095;SDS011;17749;51.962;8.560;2023-04-25T09:36:38;8.38;;;2.38;;
31095;SDS011;17749;51.962;8.560;2023-04-25T09:39:28;7.68;;;2.35;;
31095;SDS011;17749;51.962;8.560;2023-04-25T09:42:04;10.23;;;2.63;;
31095;SDS011;17749;51.962;8.560;2023-04-25T09:44:33;11.80;;;3.17;;
31095;SDS011;17749;51.962;8.560;2023-04-25T09:47:01;9.75;;;1.92;;
31095;SDS011;17749;51.962;8.560;2023-04-25T09:49:30;9.97;;;3.43;;
31095;SDS011;17749;51.962;8.560;2023-04-25T09:52:03;11.20;;;3.03;;
31095;SDS011;17749;51.962;8.560;2023-04-25T09:54:51;12.63;;;2.42;;
31095;SDS011;17749;51.962;8.560;2023-04-25T09:57:27;8.18;;;2.60;;
31095;SDS011;17749;51.962;8.560;2023-04-25T09:59:56;7.15;;;2.45;;
31095;SDS011;17749;51.962;8.560;2023-04-25T10:02:29;5.57;;;1.95;;
31095;SDS011;17749;51.962;8.560;2023-04-25T10:05:05;10.95;;;2.45;;
31095;SDS011;17749;51.962;8.560;2023-04-25T10:07:38;9.05;;;2.65;;
31095;SDS011;17749;51.962;8.560;2023-04-25T10:10:11;6.65;;;1.85;;
31095;SDS011;17749;51.962;8.560;2023-04-25T10:12:42;7.80;;;2.22;;
31095;SDS011;17749;51.962;8.560;2023-04-25T10:15:13;7.28;;;2.15;;
31095;SDS011;17749;51.962;8.560;2023-04-25T10:17:42;9.13;;;1.88;;
31095;SDS011;17749;51.962;8.560;2023-04-25T10:20:10;8.27;;;2.00;;
31095;SDS011;17749;51.962;8.560;2023-04-25T10:22:42;7.38;;;2.03;;
31095;SDS011;17749;51.962;8.560;2023-04-25T10:25:12;4.15;;;1.35;;
31095;SDS011;17749;51.962;8.560;2023-04-25T10:27:41;8.02;;;2.25;;
31095;SDS011;17749;51.962;8.560;2023-04-25T10:30:09;7.15;;;2.13;;
31095;SDS011;17749;51.962;8.560;2023-04-25T10:32:45;7.07;;;2.53;;
31095;SDS011;17749;51.962;8.560;2023-04-25T10:35:14;10.45;;;1.90;;
31095;SDS011;17749;51.962;8.560;2023-04-25T10:37:59;8.63;;;1.85;;
31095;SDS011;17749;51.962;8.560;2023-04-25T10:40:37;7.88;;;2.45;;
31095;SDS011;17749;51.962;8.560;2023-04-25T10:48:54;6.03;;;2.80;;
31095;SDS011;17749;51.962;8.560;2023-04-25T10:51:28;7.63;;;2.00;;
31095;SDS011;17749;51.962;8.560;2023-04-25T10:54:19;7.28;;;1.77;;
31095;SDS011;17749;51.962;8.560;2023-04-25T10:56:48;10.35;;;2.20;;
31095;SDS011;17749;51.962;8.560;2023-04-25T10:59:18;16.60;;;3.08;;
31095;SDS011;17749;51.962;8.560;2023-04-25T11:01:47;7.07;;;2.33;;
31095;SDS011;17749;51.962;8.560;2023-04-25T11:04:33;14.60;;;2.30;;
31095;SDS011;17749;51.962;8.560;2023-04-25T11:09:47;15.63;;;3.10;;
31095;SDS011;17749;51.962;8.560;2023-04-25T11:12:14;15.93;;;3.33;;
31095;SDS011;17749;51.962;8.560;2023-04-25T11:14:42;4.75;;;1.90;;
31095;SDS011;17749;51.962;8.560;2023-04-25T11:17:09;6.30;;;2.30;;
31095;SDS011;17749;51.962;8.560;2023-04-25T11:19:37;10.02;;;1.92;;
31095;SDS011;17749;51.962;8.560;2023-04-25T11:22:04;6.38;;;3.05;;
31095;SDS011;17749;51.962;8.560;2023-04-25T11:24:33;6.22;;;2.20;;
31095;SDS011;17749;51.962;8.560;2023-04-25T11:27:02;10.60;;;1.90;;
31095;SDS011;17749;51.962;8.560;2023-04-25T11:29:31;12.15;;;3.35;;
31095;SDS011;17749;51.962;8.560;2023-04-25T11:31:59;5.18;;;1.83;;
31095;SDS011;17749;51.962;8.560;2023-04-25T11:34:31;7.73;;;2.43;;
31095;SDS011;17749;51.962;8.560;2023-04-25T11:37:00;8.80;;;2.08;;
31095;SDS011;17749;51.962;8.560;2023-04-25T11:39:28;7.20;;;1.70;;
31095;SDS011;17749;51.962;8.560;2023-04-25T11:41:55;7.07;;;2.00;;
31095;SDS011;17749;51.962;8.560;2023-04-25T11:44:22;6.80;;;2.00;;
31095;SDS011;17749;51.962;8.560;2023-04-25T11:46:50;9.80;;;1.92;;
31095;SDS011;17749;51.962;8.560;2023-04-25T11:49:16;4.88;;;1.85;;
31095;SDS011;17749;51.962;8.560;2023-04-25T11:51:47;6.68;;;2.00;;
31095;SDS011;17749;51.962;8.560;2023-04-25T11:54:15;6.88;;;1.80;;
31095;SDS011;17749;51.962;8.560;2023-04-25T11:56:42;5.20;;;1.90;;
31095;SDS011;17749;51.962;8.560;2023-04-25T11:59:11;6.35;;;1.90;;
31095;SDS011;17749;51.962;8.560;2023-04-25T12:01:40;8.90;;;2.00;;
31095;SDS011;17749;51.962;8.560;2023-04-25T12:04:12;4.40;;;1.83;;
31095;SDS011;17749;51.962;8.560;2023-04-25T12:06:43;4.75;;;1.85;;
31095;SDS011;17749;51.962;8.560;2023-04-25T12:09:15;4.60;;;1.63;;
31095;SDS011;17749;51.962;8.560;2023-04-25T12:11:46;8.18;;;2.25;;
31095;SDS011;17749;51.962;8.560;2023-04-25T12:14:22;5.70;;;1.45;;
31095;SDS011;17749;51.962;8.560;2023-04-25T12:17:01;6.38;;;1.30;;
31095;SDS011;17749;51.962;8.560;2023-04-25T12:19:33;6.60;;;2.25;;
31095;SDS011;17749;51.962;8.560;2023-04-25T12:22:23;8.13;;;1.90;;
31095;SDS011;17749;51.962;8.560;2023-04-25T12:24:50;10.25;;;3.10;;
31095;SDS011;17749;51.962;8.560;2023-04-25T12:27:19;7.15;;;1.88;;
31095;SDS011;17749;51.962;8.560;2023-04-25T12:29:52;8.10;;;1.65;;
31095;SDS011;17749;51.962;8.560;2023-04-25T12:32:21;6.40;;;1.73;;
31095;SDS011;17749;51.962;8.560;2023-04-25T12:34:48;5.72;;;1.60;;
31095;SDS011;17749;51.962;8.560;2023-04-25T12:37:15;6.63;;;1.90;;
31095;SDS011;17749;51.962;8.560;2023-04-25T12:39:42;10.82;;;2.42;;
31095;SDS011;17749;51.962;8.560;2023-04-25T12:42:09;9.93;;;1.95;;
31095;SDS011;17749;51.962;8.560;2023-04-25T12:47:06;7.22;;;2.40;;
31095;SDS011;17749;51.962;8.560;2023-04-25T12:49:33;5.85;;;1.30;;
31095;SDS011;17749;51.962;8.560;2023-04-25T12:52:00;4.28;;;1.80;;
31095;SDS011;17749;51.962;8.560;2023-04-25T12:54:27;5.72;;;2.20;;
31095;SDS011;17749;51.962;8.560;2023-04-25T12:56:54;9.65;;;1.73;;
31095;SDS011;17749;51.962;8.560;2023-04-25T12:59:21;6.88;;;1.83;;
31095;SDS011;17749;51.962;8.560;2023-04-25T13:01:48;7.82;;;1.73;;
31095;SDS011;17749;51.962;8.560;2023-04-25T13:04:16;6.57;;;1.92;;
31095;SDS011;17749;51.962;8.560;2023-04-25T13:06:43;8.25;;;1.80;;
31095;SDS011;17749;51.962;8.560;2023-04-25T13:09:10;6.85;;;1.80;;
31095;SDS011;17749;51.962;8.560;2023-04-25T13:11:39;4.90;;;1.52;;
31095;SDS011;17749;51.962;8.560;2023-04-25T13:14:07;7.03;;;1.50;;
31095;SDS011;17749;51.962;8.560;2023-04-25T13:16:34;5.22;;;1.25;;
31095;SDS011;17749;51.962;8.560;2023-04-25T13:19:01;3.05;;;1.13;;
31095;SDS011;17749;51.962;8.560;2023-04-25T13:21:29;7.97;;;2.20;;
31095;SDS011;17749;51.962;8.560;2023-04-25T13:23:58;5.10;;;2.08;;
31095;SDS011;17749;51.962;8.560;2023-04-25T13:26:26;5.35;;;1.35;;
31095;SDS011;17749;51.962;8.560;2023-04-25T13:28:52;8.75;;;1.40;;
31095;SDS011;17749;51.962;8.560;2023-04-25T13:31:19;2.50;;;1.10;;
31095;SDS011;17749;51.962;8.560;2023-04-25T13:33:47;3.97;;;1.40;;
31095;SDS011;17749;51.962;8.560;2023-04-25T13:36:14;6.88;;;1.42;;
31095;SDS011;17749;51.962;8.560;2023-04-25T13:38:41;7.20;;;1.80;;
31095;SDS011;17749;51.962;8.560;2023-04-25T13:41:10;5.23;;;1.20;;
31095;SDS011;17749;51.962;8.560;2023-04-25T13:43:42;5.55;;;1.02;;
31095;SDS011;17749;51.962;8.560;2023-04-25T13:46:09;3.10;;;1.15;;
31095;SDS011;17749;51.962;8.560;2023-04-25T13:48:56;2.47;;;1.30;;
31095;SDS011;17749;51.962;8.560;2023-04-25T13:51:35;1.92;;;1.10;;
31095;SDS011;17749;51.962;8.560;2023-04-25T13:54:02;3.88;;;1.27;;
31095;SDS011;17749;51.962;8.560;2023-04-25T13:56:29;4.15;;;1.30;;
31095;SDS011;17749;51.962;8.560;2023-04-25T13:58:56;3.88;;;1.33;;
31095;SDS011;17749;51.962;8.560;2023-04-25T14:01:23;3.78;;;1.13;;
31095;SDS011;17749;51.962;8.560;2023-04-25T14:03:50;5.38;;;1.27;;
31095;SDS011;17749;51.962;8.560;2023-04-25T14:06:18;3.38;;;1.05;;
31095;SDS011;17749;51.962;8.560;2023-04-25T14:08:49;4.40;;;1.15;;
31095;SDS011;17749;51.962;8.560;2023-04-25T14:11:16;2.90;;;1.10;;
31095;SDS011;17749;51.962;8.560;2023-04-25T14:13:45;5.90;;;1.00;;
31095;SDS011;17749;51.962;8.560;2023-04-25T14:16:12;2.08;;;1.10;;
31095;SDS011;17749;51.962;8.560;2023-04-25T14:18:39;5.07;;;1.20;;
31095;SDS011;17749;51.962;8.560;2023-04-25T14:21:06;8.15;;;1.45;;
31095;SDS011;17749;51.962;8.560;2023-04-25T14:23:32;4.13;;;1.38;;
31095;SDS011;17749;51.962;8.560;2023-04-25T14:25:59;9.30;;;2.55;;
31095;SDS011;17749;51.962;8.560;2023-04-25T14:28:26;8.18;;;2.35;;
31095;SDS011;17749;51.962;8.560;2023-04-25T14:30:53;3.83;;;2.03;;
31095;SDS011;17749;51.962;8.560;2023-04-25T14:33:20;10.38;;;3.30;;
31095;SDS011;17749;51.962;8.560;2023-04-25T14:35:47;6.00;;;2.90;;
31095;SDS011;17749;51.962;8.560;2023-04-25T14:38:14;5.78;;;2.05;;
31095;SDS011;17749;51.962;8.560;2023-04-25T14:40:41;7.47;;;3.10;;
31095;SDS011;17749;51.962;8.560;2023-04-25T14:43:10;8.47;;;3.17;;
31095;SDS011;17749;51.962;8.560;2023-04-25T14:45:37;11.60;;;3.40;;
31095;SDS011;17749;51.962;8.560;2023-04-25T14:48:04;6.03;;;2.30;;
31095;SDS011;17749;51.962;8.560;2023-04-25T14:50:31;4.70;;;2.20;;
31095;SDS011;17749;51.962;8.560;2023-04-25T14:52:58;7.70;;;3.38;;
31095;SDS011;17749;51.962;8.560;2023-04-25T14:55:27;3.83;;;2.22;;
31095;SDS011;17749;51.962;8.560;2023-04-25T14:57:54;8.82;;;3.20;;
31095;SDS011;17749;51.962;8.560;2023-04-25T15:00:23;14.13;;;5.35;;
31095;SDS011;17749;51.962;8.560;2023-04-25T15:02:51;12.65;;;4.50;;
31095;SDS011;17749;51.962;8.560;2023-04-25T15:05:18;2.75;;;1.67;;
31095;SDS011;17749;51.962;8.560;2023-04-25T15:07:46;3.70;;;1.75;;
31095;SDS011;17749;51.962;8.560;2023-04-25T15:10:14;6.55;;;2.30;;
31095;SDS011;17749;51.962;8.560;2023-04-25T15:12:42;7.43;;;1.90;;
31095;SDS011;17749;51.962;8.560;2023-04-25T15:15:12;5.60;;;1.70;;
31095;SDS011;17749;51.962;8.560;2023-04-25T15:17:52;4.60;;;1.95;;
31095;SDS011;17749;51.962;8.560;2023-04-25T15:20:24;4.93;;;1.67;;
31095;SDS011;17749;51.962;8.560;2023-04-25T15:22:51;5.35;;;1.77;;
31095;SDS011;17749;51.962;8.560;2023-04-25T15:25:18;6.30;;;1.58;;
31095;SDS011;17749;51.962;8.560;2023-04-25T15:27:45;3.05;;;1.50;;
31095;SDS011;17749;51.962;8.560;2023-04-25T15:30:15;2.97;;;1.30;;
31095;SDS011;17749;51.962;8.560;2023-04-25T15:32:43;4.10;;;1.80;;
31095;SDS011;17749;51.962;8.560;2023-04-25T15:35:10;4.20;;;1.70;;
31095;SDS011;17749;51.962;8.560;2023-04-25T15:37:38;6.07;;;1.50;;
31095;SDS011;17749;51.962;8.560;2023-04-25T15:40:14;14.52;;;2.05;;
31095;SDS011;17749;51.962;8.560;2023-04-25T15:42:42;4.30;;;1.67;;
31095;SDS011;17749;51.962;8.560;2023-04-25T15:45:13;3.70;;;1.50;;
31095;SDS011;17749;51.962;8.560;2023-04-25T15:47:43;6.60;;;1.48;;
31095;SDS011;17749;51.962;8.560;2023-04-25T15:50:11;5.97;;;2.10;;
31095;SDS011;17749;51.962;8.560;2023-04-25T15:52:38;2.47;;;1.50;;
31095;SDS011;17749;51.962;8.560;2023-04-25T15:55:05;5.60;;;2.00;;
31095;SDS011;17749;51.962;8.560;2023-04-25T15:57:34;2.00;;;1.25;;
31095;SDS011;17749;51.962;8.560;2023-04-25T16:00:04;4.47;;;1.63;;
31095;SDS011;17749;51.962;8.560;2023-04-25T16:02:39;3.08;;;1.67;;
31095;SDS011;17749;51.962;8.560;2023-04-25T16:05:07;3.67;;;1.58;;
31095;SDS011;17749;51.962;8.560;2023-04-25T16:07:35;5.20;;;1.38;;
31095;SDS011;17749;51.962;8.560;2023-04-25T16:10:02;3.83;;;1.60;;
31095;SDS011;17749;51.962;8.560;2023-04-25T16:12:30;4.15;;;1.33;;
31095;SDS011;17749;51.962;8.560;2023-04-25T16:14:57;6.53;;;1.90;;
31095;SDS011;17749;51.962;8.560;2023-04-25T16:17:24;3.95;;;1.35;;
31095;SDS011;17749;51.962;8.560;2023-04-25T16:19:51;4.05;;;1.92;;
31095;SDS011;17749;51.962;8.560;2023-04-25T16:22:18;3.53;;;1.90;;
31095;SDS011;17749;51.962;8.560;2023-04-25T16:24:46;7.15;;;1.55;;
31095;SDS011;17749;51.962;8.560;2023-04-25T16:27:13;3.30;;;1.20;;
31095;SDS011;17749;51.962;8.560;2023-04-25T16:29:40;2.55;;;1.50;;
31095;SDS011;17749;51.962;8.560;2023-04-25T16:32:07;6.07;;;1.25;;
31095;SDS011;17749;51.962;8.560;2023-04-25T16:34:34;5.05;;;1.30;;
31095;SDS011;17749;51.962;8.560;2023-04-25T16:37:01;2.70;;;1.50;;
31095;SDS011;17749;51.962;8.560;2023-04-25T16:39:28;6.00;;;2.45;;
31095;SDS011;17749;51.962;8.560;2023-04-25T16:41:55;6.90;;;2.50;;
31095;SDS011;17749;51.962;8.560;2023-04-25T16:44:22;5.22;;;1.50;;
31095;SDS011;17749;51.962;8.560;2023-04-25T16:46:49;5.65;;;1.55;;
31095;SDS011;17749;51.962;8.560;2023-04-25T16:49:16;5.13;;;1.70;;
31095;SDS011;17749;51.962;8.560;2023-04-25T16:51:43;4.45;;;2.17;;
31095;SDS011;17749;51.962;8.560;2023-04-25T16:54:45;5.93;;;1.80;;
31095;SDS011;17749;51.962;8.560;2023-04-25T16:57:14;4.45;;;1.45;;
31095;SDS011;17749;51.962;8.560;2023-04-25T16:59:41;3.05;;;1.73;;
31095;SDS011;17749;51.962;8.560;2023-04-25T17:02:09;4.85;;;1.52;;
31095;SDS011;17749;51.962;8.560;2023-04-25T17:04:43;4.10;;;2.20;;
31095;SDS011;17749;51.962;8.560;2023-04-25T17:07:10;3.42;;;1.75;;
31095;SDS011;17749;51.962;8.560;2023-04-25T17:09:37;5.63;;;2.00;;
31095;SDS011;17749;51.962;8.560;2023-04-25T17:12:04;4.07;;;1.60;;
31095;SDS011;17749;51.962;8.560;2023-04-25T17:14:32;3.92;;;1.40;;
31095;SDS011;17749;51.962;8.560;2023-04-25T17:17:01;7.60;;;2.10;;
31095;SDS011;17749;51.962;8.560;2023-04-25T17:19:29;5.40;;;1.73;;
31095;SDS011;17749;51.962;8.560;2023-04-25T17:21:57;6.47;;;1.92;;
31095;SDS011;17749;51.962;8.560;2023-04-25T17:24:27;5.20;;;1.73;;
31095;SDS011;17749;51.962;8.560;2023-04-25T17:26:54;4.22;;;1.38;;
31095;SDS011;17749;51.962;8.560;2023-04-25T17:29:22;4.63;;;1.83;;
31095;SDS011;17749;51.962;8.560;2023-04-25T17:31:49;5.07;;;2.00;;
31095;SDS011;17749;51.962;8.560;2023-04-25T17:34:16;6.70;;;2.15;;
31095;SDS011;17749;51.962;8.560;2023-04-25T17:36:44;6.35;;;1.95;;
31095;SDS011;17749;51.962;8.560;2023-04-25T17:39:11;5.68;;;1.85;;
31095;SDS011;17749;51.962;8.560;2023-04-25T17:41:40;8.40;;;2.33;;
31095;SDS011;17749;51.962;8.560;2023-04-25T17:44:07;6.00;;;2.47;;
31095;SDS011;17749;51.962;8.560;2023-04-25T17:46:34;10.15;;;3.20;;
31095;SDS011;17749;51.962;8.560;2023-04-25T17:49:02;11.40;;;3.33;;
31095;SDS011;17749;51.962;8.560;2023-04-25T17:51:29;7.20;;;2.70;;
31095;SDS011;17749;51.962;8.560;2023-04-25T17:53:57;5.43;;;1.75;;
31095;SDS011;17749;51.962;8.560;2023-04-25T17:56:23;6.05;;;4.00;;
31095;SDS011;17749;51.962;8.560;2023-04-25T17:58:53;12.65;;;7.88;;
31095;SDS011;17749;51.962;8.560;2023-04-25T18:01:21;14.18;;;4.78;;
31095;SDS011;17749;51.962;8.560;2023-04-25T18:03:48;7.43;;;4.35;;
31095;SDS011;17749;51.962;8.560;2023-04-25T18:06:17;11.35;;;4.55;;
31095;SDS011;17749;51.962;8.560;2023-04-25T18:08:45;10.77;;;5.32;;
31095;SDS011;17749;51.962;8.560;2023-04-25T18:11:12;12.82;;;6.35;;
31095;SDS011;17749;51.962;8.560;2023-04-25T18:13:39;17.77;;;6.75;;
31095;SDS011;17749;51.962;8.560;2023-04-25T18:16:07;8.25;;;4.00;;
31095;SDS011;17749;51.962;8.560;2023-04-25T18:18:34;8.98;;;4.00;;
31095;SDS011;17749;51.962;8.560;2023-04-25T18:21:02;7.57;;;4.07;;
31095;SDS011;17749;51.962;8.560;2023-04-25T18:23:33;13.25;;;6.13;;
31095;SDS011;17749;51.962;8.560;2023-04-25T18:26:00;9.63;;;3.53;;
31095;SDS011;17749;51.962;8.560;2023-04-25T18:28:28;7.50;;;3.40;;
31095;SDS011;17749;51.962;8.560;2023-04-25T18:30:55;7.30;;;3.42;;
31095;SDS011;17749;51.962;8.560;2023-04-25T18:33:22;3.30;;;2.00;;
31095;SDS011;17749;51.962;8.560;2023-04-25T18:35:49;9.57;;;1.98;;
31095;SDS011;17749;51.962;8.560;2023-04-25T18:38:19;8.48;;;2.22;;
31095;SDS011;17749;51.962;8.560;2023-04-25T18:41:00;7.72;;;1.65;;
31095;SDS011;17749;51.962;8.560;2023-04-25T18:43:51;3.97;;;1.75;;
31095;SDS011;17749;51.962;8.560;2023-04-25T18:46:20;7.30;;;2.60;;
31095;SDS011;17749;51.962;8.560;2023-04-25T18:48:49;4.00;;;1.33;;
31095;SDS011;17749;51.962;8.560;2023-04-25T18:51:17;9.67;;;3.00;;
31095;SDS011;17749;51.962;8.560;2023-04-25T18:53:45;5.43;;;1.70;;
31095;SDS011;17749;51.962;8.560;2023-04-25T18:56:12;3.67;;;2.13;;
31095;SDS011;17749;51.962;8.560;2023-04-25T18:58:40;4.10;;;2.13;;
31095;SDS011;17749;51.962;8.560;2023-04-25T19:01:07;7.50;;;1.80;;
31095;SDS011;17749;51.962;8.560;2023-04-25T19:03:34;10.10;;;1.55;;
31095;SDS011;17749;51.962;8.560;2023-04-25T19:06:02;4.45;;;2.00;;
31095;SDS011;17749;51.962;8.560;2023-04-25T19:08:30;4.05;;;2.15;;
31095;SDS011;17749;51.962;8.560;2023-04-25T19:10:57;4.63;;;1.70;;
31095;SDS011;17749;51.962;8.560;2023-04-25T19:13:33;6.07;;;1.80;;
31095;SDS011;17749;51.962;8.560;2023-04-25T19:16:00;10.13;;;3.70;;
31095;SDS011;17749;51.962;8.560;2023-04-25T19:18:27;10.48;;;4.38;;
31095;SDS011;17749;51.962;8.560;2023-04-25T19:20:54;7.70;;;3.70;;
31095;SDS011;17749;51.962;8.560;2023-04-25T19:23:21;5.35;;;1.60;;
31095;SDS011;17749;51.962;8.560;2023-04-25T19:25:51;6.28;;;2.35;;
31095;SDS011;17749;51.962;8.560;2023-04-25T19:28:18;4.32;;;1.45;;
31095;SDS011;17749;51.962;8.560;2023-04-25T19:30:45;4.40;;;1.27;;
31095;SDS011;17749;51.962;8.560;2023-04-25T19:33:13;8.48;;;2.10;;
31095;SDS011;17749;51.962;8.560;2023-04-25T19:35:43;5.43;;;2.10;;
31095;SDS011;17749;51.962;8.560;2023-04-25T19:38:21;3.80;;;1.70;;
31095;SDS011;17749;51.962;8.560;2023-04-25T19:40:48;12.27;;;2.33;;
31095;SDS011;17749;51.962;8.560;2023-04-25T19:43:15;9.82;;;2.00;;
31095;SDS011;17749;51.962;8.560;2023-04-25T19:45:43;6.75;;;2.65;;
31095;SDS011;17749;51.962;8.560;2023-04-25T19:48:10;6.15;;;2.45;;
31095;SDS011;17749;51.962;8.560;2023-04-25T19:50:39;5.90;;;2.20;;
31095;SDS011;17749;51.962;8.560;2023-04-25T19:53:07;5.32;;;2.05;;
31095;SDS011;17749;51.962;8.560;2023-04-25T19:55:35;7.05;;;2.28;;
31095;SDS011;17749;51.962;8.560;2023-04-25T19:58:03;7.95;;;1.85;;
31095;SDS011;17749;51.962;8.560;2023-04-25T20:00:32;3.60;;;1.73;;
31095;SDS011;17749;51.962;8.560;2023-04-25T20:02:59;5.10;;;1.70;;
31095;SDS011;17749;51.962;8.560;2023-04-25T20:05:26;5.60;;;1.80;;
31095;SDS011;17749;51.962;8.560;2023-04-25T20:07:53;4.30;;;2.20;;
31095;SDS011;17749;51.962;8.560;2023-04-25T20:10:24;4.88;;;2.13;;
31095;SDS011;17749;51.962;8.560;2023-04-25T20:12:51;6.20;;;2.00;;
31095;SDS011;17749;51.962;8.560;2023-04-25T20:15:18;6.35;;;2.20;;
31095;SDS011;17749;51.962;8.560;2023-04-25T20:17:48;5.20;;;1.80;;
31095;SDS011;17749;51.962;8.560;2023-04-25T20:21:13;5.85;;;1.80;;
31095;SDS011;17749;51.962;8.560;2023-04-25T20:23:40;5.88;;;1.67;;